»·PEaware :: N9273T KALW-8W5

N9273T :: KALW-8W5

FLIGHT INFORMATION

Flight Status: Arrived
Operator: Privately registered:
United States
More flights under this callsign
Pilot: Jim L. (28297)
Aircraft: SOCATA TBM-900
(TBM9)
More flights by this aircraft type
Origin: KALW Walla Walla Regl
United States
Destination: 8W5 Apex Airpark
United States
More flights between these airports :: More routes between these airports
Route:
File this flight plan on PilotEdge
Remarks: Alphabet Challenge Washington Edition
Altitude:
(Current/Filed)
10,500ft
Speed:
(Current/Filed)
200kts
Departed: 02-May-20 03:42 AM
Arrived: 02-May-20 04:53 AM
Distance/Time
Traveled:
205nm/1:11
Distance/Time
To Go:
Arrived

Flight Plot

Page will automatically refresh every two minutes.

Flight plan parsing failed; only flown route is shown


Map Options




Map Legend


Flown Route
Filed Route
Departure Airport
Arrival Airport
Navaid (VOR, NDB)
Fix

Horizontal Profiles

Position Reports

Time Latitude Longitude Heading Altitude Ground
Speed
02-May-20 03:34 46.091598 -118.281508 126 1208ft 0kts
02-May-20 03:35 46.091585 -118.281451 92 1208ft 0kts
02-May-20 03:36 46.091980 -118.281874 239 1208ft 8kts
02-May-20 03:37 46.088781 -118.285336 214 1208ft 18kts
02-May-20 03:38 46.086073 -118.288122 216 1208ft 0kts
02-May-20 03:39 46.084680 -118.289659 215 1208ft 14kts
02-May-20 03:40 46.084558 -118.292458 34 1208ft 0kts
02-May-20 03:41 46.097417 -118.280637 24 1860ft 106kts
02-May-20 03:42 46.127235 -118.250449 92 3418ft 160kts
02-May-20 03:43 46.099607 -118.250646 253 5883ft 153kts
02-May-20 03:44 46.101572 -118.314126 280 8223ft 158kts
02-May-20 03:45 46.113939 -118.373332 280 10532ft 163kts
02-May-20 03:46 46.132026 -118.458112 282 10522ft 244kts
02-May-20 03:47 46.153385 -118.558536 282 10508ft 259kts
02-May-20 03:48 46.174198 -118.656893 283 10505ft 235kts
02-May-20 03:49 46.192857 -118.745465 283 10514ft 225kts
02-May-20 03:50 46.208303 -118.819679 286 10485ft 229kts
02-May-20 03:51 46.227086 -118.909074 286 10501ft 235kts
02-May-20 03:52 46.246009 -119.000070 286 10500ft 237kts
02-May-20 03:53 46.264872 -119.091179 286 10500ft 237kts
02-May-20 03:54 46.284246 -119.177670 288 11777ft 182kts
02-May-20 03:55 46.302921 -119.258205 288 11615ft 226kts
02-May-20 03:56 46.323987 -119.348048 288 11177ft 249kts
02-May-20 03:57 46.346584 -119.445660 288 10498ft 253kts
02-May-20 03:58 46.368096 -119.540865 288 10497ft 241kts
02-May-20 03:59 46.389240 -119.634958 288 10499ft 238kts
02-May-20 04:00 46.407572 -119.716395 287 10499ft 237kts
02-May-20 04:01 46.425576 -119.796134 287 10500ft 237kts
02-May-20 04:02 46.446143 -119.886904 288 10500ft 237kts
02-May-20 04:03 46.466783 -119.977804 288 10500ft 237kts
02-May-20 04:04 46.487482 -120.068906 288 10500ft 237kts
02-May-20 04:05 46.508110 -120.159755 288 10500ft 237kts
02-May-20 04:06 46.528771 -120.250939 288 10500ft 237kts
02-May-20 04:07 46.549352 -120.342089 288 10500ft 237kts
02-May-20 04:08 46.569877 -120.433274 288 10500ft 237kts
02-May-20 04:09 46.572670 -120.527752 267 10500ft 237kts
02-May-20 04:10 46.572353 -120.625129 271 10500ft 237kts
02-May-20 04:11 46.573226 -120.718628 270 10500ft 237kts
02-May-20 04:12 46.574112 -120.814672 270 10500ft 237kts
02-May-20 04:13 46.574922 -120.910786 270 10500ft 237kts
02-May-20 04:14 46.575650 -121.006680 270 10500ft 237kts
02-May-20 04:15 46.576293 -121.101872 270 10500ft 237kts
02-May-20 04:16 46.576862 -121.197947 270 10500ft 237kts
02-May-20 04:17 46.577351 -121.293963 270 10500ft 237kts
02-May-20 04:18 46.577762 -121.390529 270 10500ft 237kts
02-May-20 04:19 46.578090 -121.486828 270 10500ft 237kts
02-May-20 04:20 46.578338 -121.582975 270 10500ft 237kts
02-May-20 04:21 46.588451 -121.674512 294 10502ft 237kts
02-May-20 04:22 46.616079 -121.761382 294 10500ft 237kts
02-May-20 04:23 46.643658 -121.848048 294 10500ft 237kts
02-May-20 04:25 46.671297 -121.935181 294 10500ft 237kts
02-May-20 04:26 46.698861 -122.022377 294 10500ft 237kts
02-May-20 04:27 46.726308 -122.109498 294 10500ft 237kts
02-May-20 04:28 46.753842 -122.197197 294 10500ft 237kts
02-May-20 04:29 46.781231 -122.284733 294 10500ft 237kts
02-May-20 04:30 46.808605 -122.372528 294 10500ft 237kts
02-May-20 04:31 46.835900 -122.460372 294 10500ft 238kts
02-May-20 04:32 46.863164 -122.548424 294 10500ft 238kts
02-May-20 04:33 46.890479 -122.636949 294 10500ft 238kts
02-May-20 04:34 46.917400 -122.724498 293 10500ft 238kts
02-May-20 04:35 46.944389 -122.812580 293 10500ft 238kts
02-May-20 04:36 46.983973 -122.886169 338 10369ft 242kts
02-May-20 04:37 47.049144 -122.881494 9 9055ft 237kts
02-May-20 04:38 47.112079 -122.864996 9 7720ft 235kts
02-May-20 04:39 47.173653 -122.848784 9 6536ft 230kts
02-May-20 04:40 47.236830 -122.832107 9 5323ft 229kts
02-May-20 04:40 47.288115 -122.818540 9 4345ft 227kts
02-May-20 04:42 47.359841 -122.799520 9 2997ft 226kts
02-May-20 04:43 47.420324 -122.783445 9 1858ft 217kts
02-May-20 04:43 47.466837 -122.771056 9 1590ft 191kts
02-May-20 04:45 47.519548 -122.736506 39 1630ft 173kts
02-May-20 04:45 47.555424 -122.709392 3 1462ft 174kts
02-May-20 04:47 47.584285 -122.710737 3 1548ft 143kts
02-May-20 04:47 47.616074 -122.705019 7 1304ft 132kts
02-May-20 04:48 47.633651 -122.711913 326 1179ft 129kts
02-May-20 04:49 47.666315 -122.717985 8 1176ft 119kts
02-May-20 04:50 47.680461 -122.730229 175 1054ft 116kts
02-May-20 04:51 47.657942 -122.732837 183 527ft 50kts
02-May-20 04:52 47.656715 -122.732895 172 527ft 0kts
02-May-20 04:53 47.656715 -122.732895 172 527ft 0kts
02-May-20 04:54 47.656715 -122.732895 172 527ft 0kts
02-May-20 04:55 47.656715 -122.732895 172 527ft 0kts

Navigation Log

Ident Type
Flight plan parsing failed, navigation log unavailable